createdAt,value
2017-10-25T00:00:22.947Z,5.17
2017-10-25T00:02:50.547Z,5.13
2017-10-25T00:05:18.919Z,4.90
2017-10-25T00:07:47.248Z,5.10
2017-10-25T00:10:14.854Z,4.60
2017-10-25T00:12:43.191Z,5.00
2017-10-25T00:15:11.380Z,4.47
2017-10-25T00:17:38.967Z,4.33
2017-10-25T00:20:07.298Z,4.13
2017-10-25T00:22:34.912Z,5.40
2017-10-25T00:25:03.243Z,5.30
2017-10-25T00:27:30.831Z,5.10
2017-10-25T00:29:58.416Z,4.43
2017-10-25T00:32:26.019Z,4.10
2017-10-25T00:34:53.584Z,4.03
2017-10-25T00:37:21.172Z,4.00
2017-10-25T00:39:49.739Z,4.23
2017-10-25T00:42:17.312Z,4.10
2017-10-25T00:44:45.743Z,4.33
2017-10-25T00:47:13.319Z,4.30
2017-10-25T00:49:40.890Z,4.27
2017-10-25T00:52:08.492Z,3.87
2017-10-25T00:54:36.186Z,3.00
2017-10-25T00:57:03.779Z,3.80
2017-10-25T00:59:32.188Z,3.33
2017-10-25T01:01:59.843Z,3.33
2017-10-25T01:04:27.476Z,2.93
2017-10-25T01:06:55.086Z,3.80
2017-10-25T01:09:22.676Z,3.90
2017-10-25T01:11:50.292Z,4.30
2017-10-25T01:14:17.856Z,3.50
2017-10-25T01:16:45.439Z,3.17
2017-10-25T01:19:13.052Z,3.80
2017-10-25T01:21:41.399Z,3.77
2017-10-25T01:24:08.987Z,4.43
2017-10-25T01:26:37.341Z,3.60
2017-10-25T01:29:05.730Z,4.40
2017-10-25T01:31:34.107Z,3.67
2017-10-25T01:34:02.435Z,4.53
2017-10-25T01:36:30.074Z,4.37
2017-10-25T01:38:57.661Z,4.13
2017-10-25T01:41:25.267Z,4.93
2017-10-25T01:43:53.696Z,4.10
2017-10-25T01:46:21.255Z,4.10
2017-10-25T01:48:48.895Z,4.60
2017-10-25T01:51:16.524Z,4.20
2017-10-25T01:53:44.881Z,4.67
2017-10-25T01:56:12.491Z,4.77
2017-10-25T01:58:40.251Z,5.50
2017-10-25T02:01:07.930Z,6.10
2017-10-25T02:03:35.508Z,5.90
2017-10-25T02:06:03.105Z,5.13
2017-10-25T02:08:31.429Z,5.20
2017-10-25T02:10:59.119Z,4.77
2017-10-25T02:13:26.706Z,6.00
2017-10-25T02:15:54.304Z,5.33
2017-10-25T02:18:21.972Z,5.13
2017-10-25T02:20:49.543Z,5.40
2017-10-25T02:23:17.139Z,5.63
2017-10-25T02:25:45.465Z,5.63
2017-10-25T02:28:13.055Z,4.60
2017-10-25T02:30:40.675Z,4.53
2017-10-25T02:33:08.277Z,5.20
2017-10-25T02:35:35.907Z,5.53
2017-10-25T02:38:03.639Z,5.23
2017-10-25T02:40:31.203Z,4.60
2017-10-25T02:42:58.819Z,5.30
2017-10-25T02:45:27.139Z,4.60
2017-10-25T02:47:54.744Z,5.10
2017-10-25T02:50:22.451Z,6.10
2017-10-25T02:52:50.043Z,5.00
2017-10-25T02:55:17.653Z,4.53
2017-10-25T02:57:45.273Z,4.60
2017-10-25T03:00:12.834Z,4.70
2017-10-25T03:02:42.045Z,5.30
2017-10-25T03:05:10.565Z,4.77
2017-10-25T03:07:38.196Z,4.43
2017-10-25T03:10:06.549Z,4.70
2017-10-25T03:12:34.115Z,4.50
2017-10-25T03:15:01.736Z,3.77
2017-10-25T03:17:29.284Z,4.80
2017-10-25T03:19:56.840Z,3.77
2017-10-25T03:22:24.418Z,3.20
2017-10-25T03:24:51.978Z,2.60
2017-10-25T03:27:19.564Z,2.33
2017-10-25T03:29:47.123Z,2.13
2017-10-25T03:32:14.714Z,2.30
2017-10-25T03:34:42.271Z,2.33
2017-10-25T03:37:09.864Z,2.40
2017-10-25T03:39:37.423Z,2.07
2017-10-25T03:42:05.012Z,2.20
2017-10-25T03:44:32.602Z,1.80
2017-10-25T03:47:00.172Z,2.20
2017-10-25T03:49:27.747Z,2.40
2017-10-25T03:51:55.719Z,2.10
2017-10-25T03:54:23.283Z,1.80
2017-10-25T03:56:50.896Z,1.70
2017-10-25T03:59:19.235Z,2.00
2017-10-25T04:01:46.795Z,1.83
2017-10-25T04:04:14.464Z,2.10
2017-10-25T04:06:42.023Z,1.90
2017-10-25T04:09:10.352Z,1.93
2017-10-25T04:11:37.991Z,2.17
2017-10-25T04:14:06.337Z,1.80
2017-10-25T04:16:34.056Z,2.00
2017-10-25T04:19:01.613Z,1.90
2017-10-25T04:21:29.262Z,2.47
2017-10-25T04:23:56.983Z,1.90
2017-10-25T04:26:25.312Z,2.77
2017-10-25T04:28:53.002Z,3.73
2017-10-25T04:31:20.560Z,3.03
2017-10-25T04:33:48.303Z,3.17
2017-10-25T04:36:15.911Z,3.60
2017-10-25T04:38:43.611Z,3.13
2017-10-25T04:41:11.221Z,3.20
2017-10-25T04:43:39.625Z,3.90
2017-10-25T04:46:07.995Z,3.77
2017-10-25T04:48:36.338Z,3.57
2017-10-25T04:51:03.942Z,3.60
2017-10-25T04:53:32.397Z,3.27
2017-10-25T04:55:59.959Z,3.47
2017-10-25T04:58:27.560Z,3.80
2017-10-25T05:00:55.116Z,3.53
2017-10-25T05:03:22.705Z,3.70
2017-10-25T05:05:50.280Z,3.50
2017-10-25T05:08:17.840Z,3.83
2017-10-25T05:10:45.441Z,3.27
2017-10-25T05:13:13.011Z,3.50
2017-10-25T05:15:40.622Z,3.53
2017-10-25T05:18:08.955Z,4.43
2017-10-25T05:20:36.520Z,3.80
2017-10-25T05:23:04.214Z,3.47
2017-10-25T05:25:31.807Z,4.00
2017-10-25T05:28:00.168Z,3.57
2017-10-25T05:30:28.607Z,4.17
2017-10-25T05:32:56.211Z,3.57
2017-10-25T05:35:24.682Z,4.00
2017-10-25T05:37:52.320Z,3.63
2017-10-25T05:40:19.904Z,3.33
2017-10-25T05:42:48.223Z,3.50
2017-10-25T05:45:15.820Z,4.07
2017-10-25T05:47:43.399Z,4.73
2017-10-25T05:50:12.125Z,4.53
2017-10-25T05:52:39.789Z,3.90
2017-10-25T05:55:07.451Z,4.37
2017-10-25T05:57:35.038Z,3.90
2017-10-25T06:00:02.592Z,5.27
2017-10-25T06:02:30.175Z,4.50
2017-10-25T06:04:58.503Z,4.87
2017-10-25T06:07:26.099Z,4.33
2017-10-25T06:09:53.663Z,5.30
2017-10-25T06:12:21.247Z,3.93
2017-10-25T06:14:49.598Z,3.97
2017-10-25T06:17:17.954Z,4.63
2017-10-25T06:19:45.523Z,4.57
2017-10-25T06:22:13.859Z,5.40
2017-10-25T06:24:41.535Z,5.47
2017-10-25T06:27:09.237Z,6.00
2017-10-25T06:29:36.876Z,6.40
2017-10-25T06:32:04.454Z,5.23
2017-10-25T06:34:32.015Z,4.40
2017-10-25T06:37:00.367Z,6.00
2017-10-25T06:39:27.927Z,4.70
2017-10-25T06:41:55.533Z,6.40
2017-10-25T06:44:23.107Z,5.03
2017-10-25T06:46:50.707Z,4.80
2017-10-25T06:49:18.284Z,4.50
2017-10-25T06:51:45.852Z,4.60
2017-10-25T06:54:14.223Z,4.40
2017-10-25T06:56:41.777Z,3.93
2017-10-25T06:59:10.127Z,4.70
2017-10-25T07:01:37.699Z,5.67
2017-10-25T07:04:05.259Z,5.20
2017-10-25T07:06:32.851Z,7.20
2017-10-25T07:09:01.179Z,5.30
2017-10-25T07:11:28.805Z,5.67
2017-10-25T07:13:56.371Z,6.30
2017-10-25T07:16:23.931Z,5.30
2017-10-25T07:18:51.524Z,5.33
2017-10-25T07:21:19.099Z,4.57
2017-10-25T07:23:47.766Z,5.00
2017-10-25T07:26:15.325Z,4.67
2017-10-25T07:28:42.971Z,5.70
2017-10-25T07:31:10.566Z,5.10
2017-10-25T07:33:39.185Z,5.60
2017-10-25T07:36:06.844Z,5.37
2017-10-25T07:38:34.401Z,5.73
2017-10-25T07:41:01.996Z,5.80
2017-10-25T07:43:29.564Z,5.73
2017-10-25T07:45:57.167Z,6.07
2017-10-25T07:48:24.724Z,5.03
2017-10-25T07:50:52.300Z,4.90
2017-10-25T07:53:19.892Z,5.20
2017-10-25T07:55:47.451Z,6.07
2017-10-25T07:58:15.072Z,5.50
2017-10-25T08:00:42.753Z,5.10
2017-10-25T08:03:10.452Z,6.53
2017-10-25T08:05:38.056Z,5.57
2017-10-25T08:08:05.623Z,4.70
2017-10-25T08:10:33.277Z,5.00
2017-10-25T08:13:01.008Z,4.90
2017-10-25T08:15:29.370Z,5.30
2017-10-25T08:17:57.707Z,6.93
2017-10-25T08:20:25.295Z,6.47
2017-10-25T08:22:54.388Z,5.00
2017-10-25T08:25:22.008Z,5.57
2017-10-25T08:27:49.597Z,5.33
2017-10-25T08:30:17.283Z,5.33
2017-10-25T08:32:45.635Z,4.87
2017-10-25T08:35:13.224Z,4.33
2017-10-25T08:37:40.833Z,5.47
2017-10-25T08:40:08.455Z,5.33
2017-10-25T08:42:36.780Z,5.37
2017-10-25T08:45:04.362Z,5.33
2017-10-25T08:47:31.950Z,5.47
2017-10-25T08:50:00.293Z,5.53
2017-10-25T08:52:27.931Z,4.70
2017-10-25T08:54:55.505Z,5.50
2017-10-25T08:57:24.614Z,6.00
2017-10-25T08:59:53.679Z,4.87
2017-10-25T09:02:21.248Z,5.03
2017-10-25T09:04:48.835Z,5.70
2017-10-25T09:07:17.607Z,5.43
2017-10-25T09:09:45.174Z,5.80
2017-10-25T09:12:12.728Z,5.37
2017-10-25T09:14:40.343Z,5.60
2017-10-25T09:17:07.960Z,5.27
2017-10-25T09:19:36.371Z,5.37
2017-10-25T09:22:03.959Z,4.90
2017-10-25T09:24:32.598Z,4.53
2017-10-25T09:27:00.215Z,4.93
2017-10-25T09:29:27.800Z,4.83
2017-10-25T09:31:56.158Z,4.43
2017-10-25T09:34:24.549Z,3.50
2017-10-25T09:36:52.880Z,5.20
2017-10-25T09:39:20.514Z,4.73
2017-10-25T09:41:48.107Z,4.20
2017-10-25T09:44:15.678Z,5.00
2017-10-25T09:46:43.275Z,4.80
2017-10-25T09:49:11.620Z,3.00
2017-10-25T09:51:39.456Z,3.10
2017-10-25T09:54:07.019Z,1.80
2017-10-25T09:56:34.611Z,1.50
2017-10-25T09:59:02.299Z,1.60
2017-10-25T10:01:30.668Z,2.53
2017-10-25T10:03:59.043Z,2.03
2017-10-25T10:06:27.394Z,1.47
2017-10-25T10:08:54.988Z,1.50
2017-10-25T10:11:23.331Z,2.30
2017-10-25T10:13:52.407Z,5.53
2017-10-25T10:16:19.988Z,4.83
2017-10-25T10:18:47.662Z,4.60
2017-10-25T10:21:15.262Z,5.60
2017-10-25T10:23:42.857Z,5.07
2017-10-25T10:26:10.563Z,4.43
2017-10-25T10:28:38.139Z,2.90
2017-10-25T10:31:05.698Z,4.50
2017-10-25T10:33:33.315Z,4.30
2017-10-25T10:36:00.881Z,2.63
2017-10-25T10:38:29.269Z,2.50
2017-10-25T10:40:57.608Z,2.07
2017-10-25T10:43:25.222Z,1.17
2017-10-25T10:45:52.810Z,1.10
2017-10-25T10:48:20.556Z,1.13
2017-10-25T10:50:48.135Z,2.87
2017-10-25T10:53:15.732Z,1.80
2017-10-25T10:55:44.111Z,0.83
2017-10-25T10:58:12.448Z,1.03
2017-10-25T11:00:40.152Z,0.87
2017-10-25T11:03:08.523Z,0.63
2017-10-25T11:05:36.890Z,0.70
2017-10-25T11:08:04.455Z,1.13
2017-10-25T11:10:32.020Z,0.83
2017-10-25T11:13:00.388Z,0.77
2017-10-25T11:15:27.959Z,0.80
2017-10-25T11:17:56.331Z,0.83
2017-10-25T11:20:24.756Z,1.10
2017-10-25T11:22:52.331Z,0.80
2017-10-25T11:25:20.055Z,1.10
2017-10-25T11:27:47.716Z,0.73
2017-10-25T11:30:15.332Z,0.80
2017-10-25T11:32:42.890Z,0.70
2017-10-25T11:35:10.463Z,1.70
2017-10-25T11:37:38.856Z,2.13
2017-10-25T11:40:07.195Z,2.07
2017-10-25T11:42:34.875Z,2.10
2017-10-25T11:45:02.442Z,1.20
2017-10-25T11:47:30.870Z,0.73
2017-10-25T11:49:58.439Z,0.70
2017-10-25T11:52:26.018Z,0.70
2017-10-25T11:54:53.627Z,0.80
2017-10-25T11:57:21.255Z,0.93
2017-10-25T11:59:49.613Z,0.90
2017-10-25T12:02:17.173Z,2.00
2017-10-25T12:04:45.659Z,1.60
2017-10-25T12:07:13.287Z,2.30
2017-10-25T12:09:40.846Z,2.40
2017-10-25T12:12:08.447Z,1.87
2017-10-25T12:14:36.795Z,1.80
2017-10-25T12:17:04.378Z,1.80
2017-10-25T12:19:32.802Z,1.80
2017-10-25T12:22:00.391Z,2.00
2017-10-25T12:24:29.570Z,1.83
2017-10-25T12:26:57.160Z,2.10
2017-10-25T12:29:24.824Z,2.00
2017-10-25T12:31:52.529Z,2.90
2017-10-25T12:34:20.142Z,3.17
2017-10-25T12:36:47.698Z,2.00
2017-10-25T12:39:15.363Z,1.77
2017-10-25T12:41:43.707Z,2.00
2017-10-25T12:46:35.787Z,1.90
2017-10-25T12:49:03.528Z,1.80
2017-10-25T12:51:31.096Z,1.40
2017-10-25T12:53:58.689Z,1.27
2017-10-25T12:56:26.267Z,1.33
2017-10-25T12:58:53.875Z,0.80
2017-10-25T13:01:21.480Z,1.23
2017-10-25T13:03:49.052Z,1.00
2017-10-25T13:06:16.631Z,1.47
2017-10-25T13:08:44.344Z,2.60
2017-10-25T13:14:15.531Z,0.80
2017-10-25T13:16:48.895Z,1.10
2017-10-25T13:19:17.250Z,1.40
2017-10-25T13:21:44.920Z,1.07
2017-10-25T13:24:13.293Z,0.80
2017-10-25T13:26:41.623Z,0.83
2017-10-25T13:29:09.252Z,0.80
2017-10-25T13:31:36.818Z,0.67
2017-10-25T13:34:04.452Z,1.47
2017-10-25T13:36:32.805Z,1.00
2017-10-25T13:39:00.367Z,1.00
2017-10-25T13:41:27.964Z,15.07
2017-10-25T13:43:55.554Z,10.93
2017-10-25T13:46:23.151Z,8.13
2017-10-25T13:48:50.838Z,1.20
2017-10-25T13:51:18.454Z,14.60
2017-10-25T13:53:46.017Z,3.23
2017-10-25T13:56:13.583Z,1.90
2017-10-25T13:58:41.171Z,2.03
2017-10-25T14:01:09.524Z,1.37
2017-10-25T14:03:37.120Z,1.83
2017-10-25T14:06:04.684Z,1.67
2017-10-25T14:08:32.316Z,2.30
2017-10-25T14:11:00.656Z,2.30
2017-10-25T14:13:28.240Z,1.30
2017-10-25T14:15:56.609Z,1.30
2017-10-25T14:18:24.191Z,1.33
2017-10-25T14:20:52.555Z,1.53
2017-10-25T14:23:20.880Z,1.27
2017-10-25T14:25:48.468Z,1.47
2017-10-25T14:28:27.980Z,1.20
2017-10-25T14:30:55.568Z,1.50
2017-10-25T14:33:23.327Z,1.60
2017-10-25T14:35:50.941Z,1.60
2017-10-25T14:38:18.501Z,2.00
2017-10-25T14:40:46.100Z,1.60
2017-10-25T14:43:13.677Z,1.83
2017-10-25T14:45:41.263Z,1.50
2017-10-25T14:48:08.832Z,1.37
2017-10-25T14:50:36.437Z,1.80
2017-10-25T14:53:04.020Z,1.50
2017-10-25T14:55:32.517Z,1.80
2017-10-25T14:58:00.894Z,1.63
2017-10-25T15:00:28.467Z,1.30
2017-10-25T15:02:56.180Z,0.97
2017-10-25T15:05:23.739Z,1.60
2017-10-25T15:07:52.883Z,1.20
2017-10-25T15:10:20.451Z,1.50
2017-10-25T15:12:48.017Z,1.80
2017-10-25T15:15:15.614Z,1.73
2017-10-25T15:17:43.249Z,2.87
2017-10-25T15:20:10.836Z,2.03
2017-10-25T15:22:38.427Z,2.40
2017-10-25T15:25:06.027Z,1.53
2017-10-25T15:27:33.711Z,2.13
2017-10-25T15:30:01.271Z,1.80
2017-10-25T15:32:28.884Z,1.87
2017-10-25T15:34:56.463Z,2.33
2017-10-25T15:37:24.077Z,2.17
2017-10-25T15:39:51.691Z,2.10
2017-10-25T15:42:19.416Z,2.37
2017-10-25T15:44:47.035Z,2.67
2017-10-25T15:47:14.632Z,2.70
2017-10-25T15:49:42.196Z,3.23
2017-10-25T15:52:09.762Z,2.40
2017-10-25T15:54:37.361Z,1.90
2017-10-25T15:57:05.732Z,2.70
2017-10-25T15:59:33.339Z,1.80
2017-10-25T16:02:00.921Z,2.00
2017-10-25T16:04:28.549Z,1.97
2017-10-25T16:06:56.124Z,1.50
2017-10-25T16:09:23.781Z,1.53
2017-10-25T16:11:51.340Z,1.90
2017-10-25T16:14:18.956Z,1.53
2017-10-25T16:16:46.519Z,1.70
2017-10-25T16:19:15.027Z,2.10
2017-10-25T16:21:42.615Z,2.00
2017-10-25T16:24:10.187Z,2.20
2017-10-25T16:26:37.946Z,2.17
2017-10-25T16:29:05.513Z,2.47
2017-10-25T16:31:33.133Z,2.20
2017-10-25T16:34:00.699Z,2.33
2017-10-25T16:36:28.476Z,3.43
2017-10-25T16:38:56.035Z,4.00
2017-10-25T16:41:23.607Z,9.67
2017-10-25T16:43:51.188Z,5.90
2017-10-25T16:46:18.770Z,3.87
2017-10-25T16:48:47.178Z,2.60
2017-10-25T16:51:14.864Z,4.10
2017-10-25T16:53:42.592Z,2.47
2017-10-25T16:56:10.208Z,3.20
2017-10-25T16:58:38.583Z,2.80
2017-10-25T17:01:06.188Z,3.10
2017-10-25T17:03:33.798Z,3.13
2017-10-25T17:06:01.371Z,3.53
2017-10-25T17:08:29.759Z,3.73
2017-10-25T17:10:58.146Z,3.27
2017-10-25T17:13:25.727Z,3.73
2017-10-25T17:15:53.344Z,4.00
2017-10-25T17:18:21.692Z,3.50
2017-10-25T17:20:49.304Z,3.70
2017-10-25T17:23:16.888Z,3.73
2017-10-25T17:25:44.621Z,4.07
2017-10-25T17:28:12.179Z,3.83
2017-10-25T17:30:39.782Z,4.37
2017-10-25T17:33:07.364Z,3.30
2017-10-25T17:35:34.929Z,3.77
2017-10-25T17:38:03.315Z,3.77
2017-10-25T17:40:31.655Z,3.13
2017-10-25T17:42:59.272Z,4.23
2017-10-25T17:45:26.849Z,5.20
2017-10-25T17:47:54.433Z,5.53
2017-10-25T17:50:22.020Z,5.50
2017-10-25T17:52:50.363Z,5.40
2017-10-25T17:55:17.970Z,5.73
2017-10-25T17:57:46.308Z,4.57
2017-10-25T18:00:13.998Z,4.70
2017-10-25T18:02:42.373Z,5.40
2017-10-25T18:05:10.692Z,5.60
2017-10-25T18:07:38.400Z,5.40
2017-10-25T18:10:06.007Z,7.03
2017-10-25T18:12:33.603Z,8.40
2017-10-25T18:15:01.172Z,8.17
2017-10-25T18:17:29.580Z,6.50
2017-10-25T18:19:58.020Z,7.40
2017-10-25T18:22:25.604Z,7.13
2017-10-25T18:24:53.955Z,7.40
2017-10-25T18:27:21.582Z,8.20
2017-10-25T18:29:49.216Z,8.90
2017-10-25T18:32:16.827Z,7.73
2017-10-25T18:34:44.404Z,8.67
2017-10-25T18:37:12.005Z,7.93
2017-10-25T18:39:39.611Z,8.13
2017-10-25T18:42:07.242Z,8.40
2017-10-25T18:44:34.816Z,8.50
2017-10-25T18:47:02.441Z,9.43
2017-10-25T18:49:30.328Z,7.70
2017-10-25T18:51:57.912Z,9.40
2017-10-25T18:54:25.519Z,8.97
2017-10-25T18:56:53.151Z,18.50
2017-10-25T18:59:20.803Z,11.63
2017-10-25T19:01:48.456Z,10.30
2017-10-25T19:04:16.098Z,10.10
2017-10-25T19:06:43.726Z,11.70
2017-10-25T19:09:11.327Z,12.00
2017-10-25T19:11:38.976Z,17.33
2017-10-25T19:14:06.676Z,17.00
2017-10-25T19:16:34.308Z,14.20
2017-10-25T19:19:01.879Z,12.23
2017-10-25T19:21:30.266Z,13.17
2017-10-25T19:23:58.635Z,11.97
2017-10-25T19:26:27.027Z,11.20
2017-10-25T19:28:55.470Z,11.27
2017-10-25T19:31:23.063Z,10.30
2017-10-25T19:33:51.432Z,10.53
2017-10-25T19:36:19.071Z,9.93
2017-10-25T19:38:46.727Z,9.13
2017-10-25T19:41:14.341Z,9.60
2017-10-25T19:43:41.953Z,10.93
2017-10-25T19:46:09.576Z,10.17
2017-10-25T19:48:37.206Z,9.40
2017-10-25T19:51:05.561Z,9.90
2017-10-25T19:53:33.320Z,9.27
2017-10-25T19:56:00.930Z,10.10
2017-10-25T19:58:28.524Z,9.53
2017-10-25T20:00:56.173Z,9.03
2017-10-25T20:03:23.749Z,9.57
2017-10-25T20:05:51.544Z,8.47
2017-10-25T20:08:19.888Z,9.20
2017-10-25T20:10:47.501Z,9.30
2017-10-25T20:13:15.081Z,9.43
2017-10-25T20:15:42.698Z,8.77
2017-10-25T20:18:11.077Z,8.10
2017-10-25T20:20:39.443Z,9.17
2017-10-25T20:23:07.032Z,9.10
2017-10-25T20:25:34.609Z,9.07
2017-10-25T20:28:02.257Z,10.17
2017-10-25T20:30:29.849Z,9.47
2017-10-25T20:32:57.476Z,9.33
2017-10-25T20:35:25.068Z,9.60
2017-10-25T20:37:52.699Z,10.80
2017-10-25T20:40:20.325Z,10.33
2017-10-25T20:42:48.684Z,10.97
2017-10-25T20:45:16.324Z,10.03
2017-10-25T20:47:43.912Z,10.87
2017-10-25T20:50:12.455Z,10.10
2017-10-25T20:52:40.036Z,11.30
2017-10-25T20:55:09.196Z,10.30
2017-10-25T20:57:36.792Z,9.13
2017-10-25T21:00:04.528Z,9.53
2017-10-25T21:02:32.147Z,10.70
2017-10-25T21:05:00.496Z,10.20
2017-10-25T21:07:28.090Z,10.30
2017-10-25T21:09:55.966Z,9.80
2017-10-25T21:12:23.584Z,10.63
2017-10-25T21:14:51.277Z,10.63
2017-10-25T21:17:18.852Z,9.23
2017-10-25T21:19:46.564Z,11.87
2017-10-25T21:22:14.139Z,10.53
2017-10-25T21:24:42.500Z,11.53
2017-10-25T21:27:10.122Z,10.57
2017-10-25T21:29:37.711Z,10.33
2017-10-25T21:32:05.300Z,9.80
2017-10-25T21:34:33.095Z,9.00
2017-10-25T21:37:00.676Z,10.17
2017-10-25T21:39:28.259Z,10.30
2017-10-25T21:41:55.857Z,10.43
2017-10-25T21:44:23.448Z,10.27
2017-10-25T21:46:51.012Z,9.57
2017-10-25T21:49:18.596Z,9.47
2017-10-25T21:51:46.933Z,9.67
2017-10-25T21:54:14.580Z,9.87
2017-10-25T21:56:42.152Z,9.60
2017-10-25T21:59:09.727Z,9.20
2017-10-25T22:01:37.320Z,8.93
2017-10-25T22:04:05.847Z,10.20
2017-10-25T22:06:33.452Z,10.30
2017-10-25T22:09:01.811Z,10.80
2017-10-25T22:11:30.189Z,10.17
2017-10-25T22:13:59.308Z,11.70
2017-10-25T22:16:27.671Z,11.17
2017-10-25T22:18:55.236Z,9.77
2017-10-25T22:21:23.608Z,10.17
2017-10-25T22:23:51.183Z,10.40
2017-10-25T22:26:19.571Z,10.43
2017-10-25T22:28:47.147Z,9.87
2017-10-25T22:31:14.714Z,9.00
2017-10-25T22:33:42.323Z,9.80
2017-10-25T22:36:10.716Z,10.03
2017-10-25T22:38:39.183Z,10.23
2017-10-25T22:41:07.525Z,10.73
2017-10-25T22:43:35.113Z,9.03
2017-10-25T22:46:02.712Z,9.60
2017-10-25T22:48:30.324Z,11.17
2017-10-25T22:50:57.896Z,9.47
2017-10-25T22:53:26.232Z,9.87
2017-10-25T22:55:53.840Z,10.03
2017-10-25T22:58:22.173Z,9.27
2017-10-25T23:00:49.744Z,9.67
2017-10-25T23:03:17.355Z,10.30
2017-10-25T23:05:44.921Z,8.73
2017-10-25T23:08:12.617Z,9.40
2017-10-25T23:10:40.202Z,8.57
2017-10-25T23:13:08.549Z,8.37
2017-10-25T23:15:36.105Z,9.20
2017-10-25T23:18:03.716Z,8.77
2017-10-25T23:20:31.279Z,8.67
2017-10-25T23:22:58.848Z,9.27
2017-10-25T23:25:26.449Z,9.10
2017-10-25T23:27:55.552Z,8.77
2017-10-25T23:30:23.147Z,9.20
2017-10-25T23:32:50.716Z,10.37
2017-10-25T23:35:18.303Z,8.57
2017-10-25T23:37:45.871Z,9.90
2017-10-25T23:40:13.483Z,10.40
2017-10-25T23:42:41.049Z,9.57
2017-10-25T23:45:08.632Z,9.10
2017-10-25T23:47:36.224Z,8.53
2017-10-25T23:50:03.833Z,8.80
2017-10-25T23:52:31.430Z,9.13
2017-10-25T23:54:59.009Z,7.90
2017-10-25T23:57:27.371Z,8.80
2017-10-25T23:59:54.939Z,10.10
